Time;durP1;ratioP1;P1;durP2;ratioP2;P2;SDS_P1;SDS_P2;PMS_P1;PMS_P2;Temp;Humidity;BMP_temperature;BMP_pressure;BME280_temperature;BME280_humidity;BME280_pressure;Samples;Min_cycle;Max_cycle;Signal;HPM_P1;HPM_P2
2022/04/19 00:01:04;;;;;;;11.18;7.13;;;7.90;99.90;;;;;;4995703;28;20054;-72
2022/04/19 00:03:30;;;;;;;13.10;7.25;;;7.90;99.90;;;;;;4995387;28;20065;-73
2022/04/19 00:05:56;;;;;;;11.07;7.50;;;7.80;99.90;;;;;;4995291;28;20046;-71
2022/04/19 00:08:21;;;;;;;12.65;7.18;;;7.90;99.90;;;;;;4995115;28;20053;-71
2022/04/19 00:10:47;;;;;;;10.65;7.82;;;7.70;99.90;;;;;;4996157;28;20435;-72
2022/04/19 00:13:16;;;;;;;10.60;7.50;;;7.70;99.90;;;;;;4995691;28;20483;-73
2022/04/19 00:15:42;;;;;;;11.57;7.53;;;7.60;99.90;;;;;;4991879;28;20382;-71
2022/04/19 00:18:09;;;;;;;10.45;6.90;;;7.60;99.90;;;;;;4975969;28;20133;-71
2022/04/19 00:20:35;;;;;;;11.25;7.30;;;7.70;99.90;;;;;;4975731;28;20462;-71
2022/04/19 00:23:03;;;;;;;9.40;7.22;;;7.50;99.90;;;;;;4975870;28;20407;-71
2022/04/19 00:25:28;;;;;;;10.00;7.00;;;7.50;99.90;;;;;;4992635;28;20383;-71
2022/04/19 00:27:54;;;;;;;11.27;7.32;;;7.50;99.90;;;;;;4995266;28;20072;-72
2022/04/19 00:30:20;;;;;;;11.85;8.10;;;7.40;99.90;;;;;;4979217;28;20058;-72
2022/04/19 00:32:46;;;;;;;12.40;7.72;;;7.40;99.90;;;;;;4995234;28;20466;-72
2022/04/19 00:35:12;;;;;;;10.90;7.70;;;7.40;99.90;;;;;;4978264;28;20116;-72
2022/04/19 00:37:38;;;;;;;12.15;8.30;;;7.30;99.90;;;;;;4995913;28;20379;-72
2022/04/19 00:40:06;;;;;;;13.55;7.90;;;7.30;99.90;;;;;;4978338;28;20455;-73
2022/04/19 00:42:33;;;;;;;13.80;7.75;;;7.30;99.90;;;;;;4995374;28;20077;-71
2022/04/19 00:45:02;;;;;;;10.38;7.35;;;7.30;99.90;;;;;;4978049;28;20060;-71
2022/04/19 00:47:32;;;;;;;12.68;8.02;;;7.20;99.90;;;;;;4995006;28;20048;-71
2022/04/19 00:49:58;;;;;;;11.75;8.35;;;7.20;99.90;;;;;;4962387;28;20074;-72
2022/04/19 00:52:24;;;;;;;13.27;8.20;;;7.10;99.90;;;;;;4995264;28;20123;-71
2022/04/19 00:54:50;;;;;;;11.77;8.02;;;7.10;99.90;;;;;;4967126;28;20059;-72
2022/04/19 00:57:15;;;;;;;12.00;8.05;;;7.10;99.90;;;;;;4958879;28;20058;-72
2022/04/19 00:59:42;;;;;;;14.82;7.90;;;7.00;99.90;;;;;;4975937;28;20042;-72
2022/04/19 01:02:07;;;;;;;13.82;7.18;;;7.00;99.90;;;;;;4975825;28;20054;-72
2022/04/19 01:04:33;;;;;;;13.07;8.35;;;7.00;99.90;;;;;;4983827;28;20039;-71
2022/04/19 01:06:59;;;;;;;11.85;8.68;;;6.90;99.90;;;;;;4996043;28;20352;-71
2022/04/19 01:09:25;;;;;;;13.05;8.82;;;6.90;99.90;;;;;;4981928;28;20050;-71
2022/04/19 01:14:37;;;;;;;13.10;8.52;;;6.90;99.90;;;;;;4989387;28;20051;-73
2022/04/19 01:17:07;;;;;;;13.07;7.63;;;6.80;99.90;;;;;;4962109;28;20050;-71
2022/04/19 01:19:35;;;;;;;14.20;8.48;;;6.80;99.90;;;;;;4979120;28;20078;-72
2022/04/19 01:22:00;;;;;;;16.33;8.88;;;6.80;99.90;;;;;;4978924;28;20126;-72
2022/04/19 01:24:26;;;;;;;13.93;9.38;;;6.70;99.90;;;;;;4969065;28;20122;-72
2022/04/19 01:26:57;;;;;;;14.02;9.18;;;6.70;99.90;;;;;;4980889;28;20124;-71
2022/04/19 01:29:24;;;;;;;12.32;8.60;;;6.70;99.90;;;;;;4998025;28;20057;-73
2022/04/19 01:31:51;;;;;;;11.75;8.40;;;6.70;99.90;;;;;;4998228;28;20056;-73
2022/04/19 01:34:18;;;;;;;14.02;8.70;;;6.70;99.90;;;;;;4981472;28;20043;-71
2022/04/19 01:36:43;;;;;;;13.48;8.98;;;6.60;99.90;;;;;;4978962;28;20116;-72
2022/04/19 01:39:10;;;;;;;12.90;8.73;;;6.60;99.90;;;;;;4978757;28;20043;-72
2022/04/19 01:41:37;;;;;;;13.57;8.90;;;6.60;99.90;;;;;;4979525;28;20039;-72
2022/04/19 01:44:05;;;;;;;12.75;9.13;;;6.50;99.90;;;;;;4978579;28;20042;-72
2022/04/19 01:46:34;;;;;;;13.85;9.27;;;6.50;99.90;;;;;;4978493;28;20518;-73
2022/04/19 01:49:02;;;;;;;12.68;8.50;;;6.50;99.90;;;;;;4978629;28;20045;-71
2022/04/19 01:51:28;;;;;;;13.45;9.15;;;6.40;99.90;;;;;;4978551;28;20043;-71
2022/04/19 01:53:55;;;;;;;16.17;9.52;;;6.40;99.90;;;;;;4980931;28;20045;-71
2022/04/19 01:56:21;;;;;;;13.70;9.43;;;6.40;99.90;;;;;;4997654;28;20053;-71
2022/04/19 01:58:48;;;;;;;16.83;9.20;;;6.30;99.90;;;;;;4981377;28;20109;-71
2022/04/19 02:01:13;;;;;;;14.63;10.25;;;6.30;99.90;;;;;;4980696;28;20359;-70
2022/04/19 02:03:39;;;;;;;16.35;9.98;;;6.30;99.90;;;;;;4979092;28;20058;-71
2022/04/19 02:06:09;;;;;;;14.65;9.70;;;6.30;99.90;;;;;;4945468;28;20110;-71
2022/04/19 02:08:35;;;;;;;14.25;10.05;;;6.30;99.90;;;;;;4978142;28;20053;-71
2022/04/19 02:11:00;;;;;;;13.85;9.50;;;6.40;99.90;;;;;;4977919;28;20038;-71
2022/04/19 02:13:27;;;;;;;13.52;10.45;;;6.30;99.90;;;;;;4993919;28;20046;-73
2022/04/19 02:15:53;;;;;;;16.60;10.18;;;6.30;99.90;;;;;;4997376;28;20052;-71
2022/04/19 02:18:19;;;;;;;16.17;10.15;;;6.30;99.90;;;;;;4980113;28;20050;-72
2022/04/19 02:20:45;;;;;;;14.50;9.77;;;6.30;99.90;;;;;;4997578;28;20046;-72
2022/04/19 02:23:14;;;;;;;16.63;10.30;;;6.30;99.90;;;;;;4983241;28;20110;-71
2022/04/19 02:25:40;;;;;;;14.55;9.93;;;6.30;99.90;;;;;;4977715;28;20042;-73
2022/04/19 02:28:07;;;;;;;16.23;9.73;;;6.20;99.90;;;;;;4977780;28;20121;-73
2022/04/19 02:30:33;;;;;;;17.08;10.18;;;6.20;99.90;;;;;;4944104;28;20054;-72
2022/04/19 02:33:02;;;;;;;14.85;10.43;;;6.10;99.90;;;;;;4972581;28;20061;-73
2022/04/19 02:35:28;;;;;;;15.25;9.85;;;6.10;99.90;;;;;;4980241;28;20057;-73
2022/04/19 02:37:56;;;;;;;14.30;9.70;;;6.10;99.90;;;;;;4996901;28;20046;-71
2022/04/19 02:40:23;;;;;;;19.30;10.15;;;6.10;99.90;;;;;;4996582;28;20455;-71
2022/04/19 02:42:50;;;;;;;15.38;9.98;;;6.10;99.90;;;;;;4985791;28;20062;-72
2022/04/19 02:45:19;;;;;;;13.07;9.23;;;6.10;99.90;;;;;;4960411;28;20058;-71
2022/04/19 02:47:45;;;;;;;15.93;10.77;;;6.10;99.90;;;;;;4960585;28;20375;-70
2022/04/19 02:50:11;;;;;;;15.65;10.63;;;6.10;99.90;;;;;;4960353;28;20118;-72
2022/04/19 02:52:36;;;;;;;15.90;9.52;;;6.00;99.90;;;;;;4985519;28;20130;-71
2022/04/19 02:55:02;;;;;;;17.75;10.88;;;6.00;99.90;;;;;;4993588;28;20443;-72
2022/04/19 02:57:28;;;;;;;17.30;11.00;;;6.00;99.90;;;;;;4996833;28;20087;-72
2022/04/19 02:59:53;;;;;;;17.70;11.20;;;6.00;99.90;;;;;;4996491;28;20129;-72
2022/04/19 03:02:19;;;;;;;18.98;10.88;;;5.90;99.90;;;;;;4996247;28;20113;-72
2022/04/19 03:04:45;;;;;;;14.98;10.48;;;5.90;99.90;;;;;;4996659;28;20209;-71
2022/04/19 03:07:14;;;;;;;18.13;11.00;;;5.90;99.90;;;;;;4996499;28;20046;-72
2022/04/19 03:09:40;;;;;;;16.23;11.00;;;5.90;99.90;;;;;;4996176;28;20458;-72
2022/04/19 03:12:06;;;;;;;17.70;12.07;;;5.80;99.90;;;;;;4996328;28;20038;-72
2022/04/19 03:14:32;;;;;;;21.17;12.25;;;5.80;99.90;;;;;;4996015;28;20490;-71
2022/04/19 03:16:57;;;;;;;17.98;11.93;;;5.80;99.90;;;;;;4996426;28;20051;-73
2022/04/19 03:19:24;;;;;;;17.13;11.32;;;5.70;99.90;;;;;;4996390;28;20061;-72
2022/04/19 03:21:49;;;;;;;19.02;12.40;;;5.70;99.90;;;;;;4994905;28;20038;-73
2022/04/19 03:29:43;;;;;;;19.35;12.48;;;5.60;99.90;;;;;;4975939;28;20063;-72
2022/04/19 03:32:09;;;;;;;17.40;11.55;;;5.60;99.90;;;;;;4962545;28;20340;-71
2022/04/19 03:34:35;;;;;;;21.05;11.10;;;5.60;99.90;;;;;;4995897;28;20057;-71
2022/04/19 03:37:01;;;;;;;16.30;10.80;;;5.60;99.90;;;;;;4996173;28;20042;-73
2022/04/19 03:39:26;;;;;;;19.63;11.90;;;5.50;99.90;;;;;;4996120;28;20046;-71
2022/04/19 03:41:52;;;;;;;16.23;10.55;;;5.50;99.90;;;;;;4994080;28;20038;-71
2022/04/19 03:44:18;;;;;;;16.08;10.85;;;5.50;99.90;;;;;;4976673;28;20066;-72
2022/04/19 03:49:27;;;;;;;17.70;10.45;;;5.50;99.90;;;;;;4976236;28;20050;-72
2022/04/19 03:51:53;;;;;;;18.27;11.45;;;5.50;99.90;;;;;;4976825;28;20043;-72
2022/04/19 03:54:19;;;;;;;18.55;11.20;;;5.50;99.90;;;;;;4991923;28;20046;-71
2022/04/19 03:56:44;;;;;;;17.42;11.95;;;5.50;99.90;;;;;;4996060;28;20132;-70
2022/04/19 03:59:10;;;;;;;17.63;10.23;;;5.50;99.90;;;;;;4998443;28;20054;-70
2022/04/19 04:01:39;;;;;;;15.57;10.80;;;5.50;99.90;;;;;;4996878;28;20048;-72
2022/04/19 04:04:07;;;;;;;16.88;9.90;;;5.50;99.90;;;;;;4980621;28;20424;-72
2022/04/19 04:06:35;;;;;;;16.98;11.20;;;5.40;99.90;;;;;;4978713;28;20450;-71
2022/04/19 04:09:01;;;;;;;16.35;10.25;;;5.40;99.90;;;;;;4995497;28;20078;-72
2022/04/19 04:11:27;;;;;;;17.02;10.82;;;5.40;99.90;;;;;;4995526;28;20046;-73
2022/04/19 04:13:52;;;;;;;17.92;10.45;;;5.30;99.90;;;;;;4995272;28;20132;-72
2022/04/19 04:16:18;;;;;;;13.23;9.57;;;5.30;99.90;;;;;;4995376;28;20058;-71
2022/04/19 04:18:44;;;;;;;13.50;9.60;;;5.30;99.90;;;;;;4977176;28;20394;-72
2022/04/19 04:21:09;;;;;;;16.98;10.10;;;5.20;99.90;;;;;;4958902;28;20423;-72
2022/04/19 04:23:35;;;;;;;16.55;10.27;;;5.20;99.90;;;;;;4975971;28;20054;-72
2022/04/19 04:26:00;;;;;;;14.77;10.65;;;5.20;99.90;;;;;;4976049;28;20459;-69
2022/04/19 04:28:26;;;;;;;16.25;9.88;;;5.20;99.90;;;;;;4955349;28;20062;-72
2022/04/19 04:30:52;;;;;;;19.00;10.07;;;5.20;99.90;;;;;;4974447;28;20436;-72
2022/04/19 04:33:17;;;;;;;17.27;10.27;;;5.20;99.90;;;;;;4975476;28;20130;-72
2022/04/19 04:35:43;;;;;;;18.63;10.80;;;5.20;99.90;;;;;;4974922;28;20130;-71
2022/04/19 04:38:09;;;;;;;22.00;10.13;;;5.20;99.90;;;;;;4975088;28;20046;-71
2022/04/19 04:40:35;;;;;;;16.88;11.25;;;5.20;99.90;;;;;;4962311;28;20057;-72
2022/04/19 04:43:00;;;;;;;17.65;10.50;;;5.20;99.90;;;;;;4979510;28;20455;-71
2022/04/19 04:45:26;;;;;;;16.30;10.23;;;5.20;99.90;;;;;;4979469;28;20054;-72
2022/04/19 04:50:36;;;;;;;17.13;10.13;;;5.20;99.90;;;;;;4979285;28;20050;-72
2022/04/19 04:53:02;;;;;;;16.40;9.95;;;5.20;99.90;;;;;;4979133;28;20085;-71
2022/04/19 04:55:28;;;;;;;15.98;11.13;;;5.20;99.90;;;;;;4979440;28;20129;-73
2022/04/19 04:57:57;;;;;;;15.57;9.88;;;5.20;99.90;;;;;;4979467;28;20138;-70
2022/04/19 05:00:25;;;;;;;15.15;10.00;;;5.20;99.90;;;;;;4965425;28;20055;-72
2022/04/19 05:02:51;;;;;;;16.05;9.80;;;5.20;99.90;;;;;;4959164;29;20059;-73
2022/04/19 05:05:17;;;;;;;15.60;9.57;;;5.20;99.90;;;;;;4959902;28;20043;-71
2022/04/19 05:07:43;;;;;;;14.15;9.50;;;5.20;99.90;;;;;;4959264;29;20138;-73
2022/04/19 05:10:09;;;;;;;18.60;9.85;;;5.30;99.90;;;;;;4970901;28;20047;-72
2022/04/19 05:12:34;;;;;;;18.38;10.45;;;5.30;99.90;;;;;;4979448;28;20113;-71
2022/04/19 05:15:00;;;;;;;16.42;9.90;;;5.40;99.90;;;;;;4979066;28;20042;-71
2022/04/19 05:17:26;;;;;;;18.02;11.02;;;5.70;99.90;;;;;;4979066;28;20121;-72
2022/04/19 05:19:56;;;;;;;16.23;10.25;;;5.40;99.90;;;;;;4985305;28;20051;-72
2022/04/19 05:22:22;;;;;;;17.02;10.52;;;5.50;99.90;;;;;;4959741;28;20042;-72
2022/04/19 05:24:47;;;;;;;16.73;10.35;;;5.60;99.90;;;;;;4959692;28;20523;-72
2022/04/19 05:27:13;;;;;;;16.05;10.30;;;5.70;99.90;;;;;;4967267;28;20058;-72
2022/04/19 05:29:39;;;;;;;17.60;10.73;;;5.80;99.90;;;;;;4969874;28;20059;-72
2022/04/19 05:32:05;;;;;;;18.42;10.80;;;6.00;99.90;;;;;;5003481;28;20129;-70
2022/04/19 05:34:31;;;;;;;20.88;10.60;;;6.10;99.90;;;;;;4993941;28;20050;-71
2022/04/19 05:36:56;;;;;;;20.52;10.68;;;6.30;99.90;;;;;;4980534;28;20352;-71
2022/04/19 05:39:22;;;;;;;15.98;9.80;;;6.40;99.90;;;;;;4979227;28;20081;-71
2022/04/19 05:41:48;;;;;;;15.43;9.88;;;6.50;99.90;;;;;;4992497;28;21718;-70
2022/04/19 05:44:16;;;;;;;16.63;9.35;;;6.70;99.90;;;;;;4997564;28;20449;-72
2022/04/19 05:46:42;;;;;;;16.10;9.57;;;7.10;99.90;;;;;;4988297;28;20042;-72
2022/04/19 05:49:07;;;;;;;15.82;10.18;;;7.60;99.90;;;;;;4997528;28;20054;-71
2022/04/19 05:51:34;;;;;;;16.55;10.05;;;8.00;99.90;;;;;;4997654;28;20039;-72
2022/04/19 05:53:59;;;;;;;18.77;9.68;;;8.40;99.90;;;;;;4996466;28;20047;-72
2022/04/19 05:56:25;;;;;;;15.60;9.38;;;9.20;99.90;;;;;;4996075;28;20050;-70
2022/04/19 05:58:50;;;;;;;17.35;9.48;;;10.20;99.90;;;;;;4995118;28;20121;-72
2022/04/19 06:01:16;;;;;;;15.85;9.23;;;11.40;99.90;;;;;;4989852;28;20450;-72
2022/04/19 06:06:26;;;;;;;16.33;9.23;;;13.30;99.90;;;;;;4997111;28;20062;-70
2022/04/19 06:08:53;;;;;;;12.10;8.52;;;14.20;99.90;;;;;;4995699;28;20329;-74
2022/04/19 06:11:18;;;;;;;13.90;8.80;;;14.90;99.90;;;;;;4977460;28;20133;-74
2022/04/19 06:13:45;;;;;;;13.38;8.63;;;15.40;99.90;;;;;;4985650;28;20125;-76
2022/04/19 06:16:11;;;;;;;13.43;8.48;;;16.10;99.90;;;;;;4973051;28;20483;-75
2022/04/19 06:18:37;;;;;;;14.27;8.70;;;16.20;99.90;;;;;;4990820;28;20053;-74
2022/04/19 06:21:04;;;;;;;13.27;8.95;;;16.60;99.90;;;;;;4992381;28;20085;-76
2022/04/19 06:23:31;;;;;;;11.82;8.52;;;17.10;97.70;;;;;;4978288;28;20112;-76
2022/04/19 06:25:56;;;;;;;13.85;8.07;;;17.30;99.00;;;;;;4980212;28;20050;-77
2022/04/19 06:28:22;;;;;;;15.75;8.73;;;17.20;96.20;;;;;;4997109;28;20039;-78
2022/04/19 06:30:48;;;;;;;13.95;8.07;;;17.90;97.90;;;;;;4978008;28;20133;-76
2022/04/19 06:33:13;;;;;;;12.60;7.95;;;17.70;96.70;;;;;;4993962;28;20117;-76
2022/04/19 06:35:39;;;;;;;14.68;7.97;;;18.20;97.00;;;;;;4994562;28;20047;-76
2022/04/19 06:38:04;;;;;;;10.20;7.45;;;18.30;93.90;;;;;;4987190;28;20086;-78
2022/04/19 06:40:30;;;;;;;11.35;7.68;;;18.60;94.60;;;;;;4981341;28;20046;-77
2022/04/19 06:42:57;;;;;;;13.23;7.80;;;18.80;94.80;;;;;;4985306;28;20074;-77
2022/04/19 06:45:23;;;;;;;13.65;7.55;;;18.90;92.90;;;;;;4994410;28;20042;-78
2022/04/19 06:47:56;;;;;;;10.85;7.32;;;18.90;91.10;;;;;;4995105;28;20046;-78
2022/04/19 06:50:23;;;;;;;10.85;7.25;;;18.90;92.30;;;;;;4967856;28;20463;-79
2022/04/19 06:52:49;;;;;;;10.50;7.35;;;18.30;91.20;;;;;;4987474;28;20430;-77
2022/04/19 06:55:15;;;;;;;19.17;8.57;;;17.30;92.40;;;;;;4989272;28;20192;-78
2022/04/19 06:57:41;;;;;;;11.15;7.25;;;16.30;93.40;;;;;;4996211;28;20382;-75
2022/04/19 07:00:07;;;;;;;12.13;7.55;;;15.40;94.80;;;;;;4978753;28;20378;-77
2022/04/19 07:02:32;;;;;;;12.90;8.20;;;14.40;96.40;;;;;;4961331;28;20053;-78
2022/04/19 07:04:59;;;;;;;16.63;8.07;;;13.90;98.40;;;;;;4979778;28;20375;-77
2022/04/19 07:07:25;;;;;;;15.68;7.82;;;13.60;99.50;;;;;;4955736;28;20050;-77
2022/04/19 07:09:51;;;;;;;10.93;8.27;;;13.20;99.90;;;;;;4989305;28;20035;-79
2022/04/19 07:12:19;;;;;;;13.75;8.40;;;13.10;99.90;;;;;;4987367;28;20065;-78
2022/04/19 07:14:45;;;;;;;13.25;8.20;;;13.00;99.90;;;;;;4996217;28;20053;-77
2022/04/19 07:17:10;;;;;;;12.75;7.57;;;12.70;99.90;;;;;;5007175;28;20034;-78
2022/04/19 07:27:49;;;;;;;12.98;7.75;;;12.70;99.90;;;;;;4995382;28;20054;-78
2022/04/19 07:30:16;;;;;;;11.23;7.53;;;12.80;99.90;;;;;;4993993;28;20093;-75
2022/04/19 07:32:42;;;;;;;14.25;7.70;;;12.90;99.90;;;;;;4977500;28;20057;-76
2022/04/19 07:35:08;;;;;;;15.45;8.13;;;12.80;99.90;;;;;;4995917;28;20042;-77
2022/04/19 07:37:34;;;;;;;11.77;7.55;;;12.80;99.90;;;;;;4995794;28;20048;-76
2022/04/19 07:39:59;;;;;;;12.70;6.45;;;12.80;99.90;;;;;;4978319;28;20046;-77
2022/04/19 07:42:25;;;;;;;16.80;7.68;;;12.70;99.90;;;;;;4995134;28;20522;-76
2022/04/19 07:44:51;;;;;;;11.07;6.53;;;12.70;99.90;;;;;;4994754;28;20121;-76
2022/04/19 07:47:17;;;;;;;10.38;6.40;;;12.80;99.90;;;;;;4978106;28;20053;-76
2022/04/19 07:49:43;;;;;;;12.25;6.75;;;13.00;99.90;;;;;;4961531;28;20053;-75
2022/04/19 07:52:09;;;;;;;10.15;6.78;;;13.00;99.90;;;;;;4990584;28;20046;-78
2022/04/19 07:54:36;;;;;;;11.50;6.97;;;13.10;99.90;;;;;;4974979;28;20467;-76
2022/04/19 07:57:02;;;;;;;11.20;7.10;;;13.00;99.90;;;;;;4992490;28;20370;-76
2022/04/19 07:59:28;;;;;;;12.13;6.18;;;13.10;99.90;;;;;;4976205;28;20046;-77
2022/04/19 08:01:54;;;;;;;10.73;6.20;;;13.00;99.90;;;;;;4995430;28;20042;-76
2022/04/19 08:04:20;;;;;;;11.00;5.78;;;12.90;99.90;;;;;;4978431;28;20069;-77
2022/04/19 08:06:46;;;;;;;10.75;6.55;;;13.00;99.90;;;;;;4992818;28;20053;-77
2022/04/19 08:09:11;;;;;;;13.77;6.50;;;13.20;99.90;;;;;;4995367;28;20030;-76
2022/04/19 08:11:37;;;;;;;10.65;5.85;;;14.20;99.90;;;;;;4964419;28;20413;-73
2022/04/19 08:14:02;;;;;;;11.18;5.90;;;15.40;99.90;;;;;;4981405;28;20479;-79
2022/04/19 08:16:28;;;;;;;8.43;5.63;;;16.80;99.90;;;;;;4992114;28;20077;-77
2022/04/19 08:18:54;;;;;;;8.20;4.47;;;17.70;98.60;;;;;;4977492;28;20057;-76
2022/04/19 08:21:20;;;;;;;9.55;4.95;;;18.50;97.70;;;;;;4990883;28;20038;-74
2022/04/19 08:23:45;;;;;;;7.45;4.60;;;18.70;93.90;;;;;;4995369;28;20162;-78
2022/04/19 08:26:11;;;;;;;9.40;4.78;;;19.00;91.90;;;;;;4994688;28;20054;-77
2022/04/19 08:28:36;;;;;;;6.47;4.70;;;18.90;90.60;;;;;;4995339;28;20390;-77
2022/04/19 08:31:02;;;;;;;5.93;3.88;;;18.70;88.30;;;;;;4961449;28;20399;-76
2022/04/19 08:33:28;;;;;;;5.72;3.30;;;19.10;84.40;;;;;;4922712;29;20550;-78
2022/04/19 08:35:53;;;;;;;5.93;3.15;;;18.70;81.40;;;;;;4938981;29;20547;-78
2022/04/19 08:38:19;;;;;;;8.40;3.17;;;18.90;80.80;;;;;;4923661;29;20110;-77
2022/04/19 08:40:44;;;;;;;6.47;3.10;;;19.00;78.30;;;;;;4954721;28;20438;-77
2022/04/19 08:43:11;;;;;;;4.90;2.60;;;19.30;79.30;;;;;;4938341;28;20109;-76
2022/04/19 08:45:37;;;;;;;5.10;2.75;;;19.50;75.20;;;;;;4938660;29;20055;-77
2022/04/19 08:48:07;;;;;;;4.38;2.55;;;19.30;71.20;;;;;;4951240;28;20126;-76
2022/04/19 08:50:32;;;;;;;5.00;2.60;;;18.90;72.20;;;;;;4957578;28;20054;-78
2022/04/19 08:58:29;;;;;;;4.85;2.28;;;18.30;71.20;;;;;;4957216;28;20518;-78
2022/04/19 09:00:55;;;;;;;5.25;2.15;;;18.00;72.00;;;;;;4923827;28;20059;-77
2022/04/19 09:03:21;;;;;;;4.93;2.40;;;17.80;72.20;;;;;;4958665;28;20105;-78
2022/04/19 09:05:51;;;;;;;4.43;2.00;;;17.60;72.00;;;;;;4975431;28;20042;-79
2022/04/19 09:08:18;;;;;;;5.25;2.30;;;17.20;71.20;;;;;;4972672;28;20054;-77
2022/04/19 09:10:43;;;;;;;4.50;2.33;;;17.00;71.90;;;;;;4977817;28;20058;-79
2022/04/19 09:13:11;;;;;;;3.38;1.70;;;16.70;72.20;;;;;;4961822;28;20371;-77
2022/04/19 09:15:44;;;;;;;3.25;2.10;;;16.50;74.30;;;;;;4993857;28;20050;-77
2022/04/19 09:18:13;;;;;;;;;;;16.40;75.90;;;;;;4995164;28;20080;-79
2022/04/19 09:20:38;;;;;;;3.53;1.50;;;16.30;75.90;;;;;;4994971;28;20301;-78
2022/04/19 09:23:09;;;;;;;4.28;2.10;;;16.30;74.50;;;;;;4994598;28;20050;-77
2022/04/19 09:25:35;;;;;;;2.53;1.38;;;16.60;75.20;;;;;;4994815;28;20042;-77
2022/04/19 09:28:03;;;;;;;8.63;2.33;;;16.60;73.40;;;;;;4978265;28;20089;-77
2022/04/19 09:30:37;;;;;;;6.85;1.73;;;16.90;73.60;;;;;;4981312;28;20042;-78
2022/04/19 09:33:10;;;;;;;6.93;1.98;;;17.40;73.40;;;;;;4981014;28;20046;-77
2022/04/19 09:35:43;;;;;;;4.18;1.80;;;17.40;74.00;;;;;;4981474;28;20046;-77
2022/04/19 09:38:10;;;;;;;5.93;2.00;;;17.70;72.90;;;;;;4952010;28;20441;-78
2022/04/19 09:40:41;;;;;;;5.38;1.85;;;18.00;73.40;;;;;;4961539;28;20134;-78
2022/04/19 09:43:12;;;;;;;6.70;3.05;;;18.00;74.80;;;;;;4961370;28;20051;-76
2022/04/19 09:45:46;;;;;;;4.68;1.92;;;17.70;74.00;;;;;;4961596;28;20363;-77
2022/04/19 09:48:17;;;;;;;7.10;1.83;;;17.30;74.50;;;;;;4991249;28;20085;-77
2022/04/19 09:50:57;;;;;;;10.43;2.65;;;17.00;74.80;;;;;;4997743;28;20039;-77
2022/04/19 09:53:25;;;;;;;4.43;2.15;;;16.50;75.70;;;;;;4997607;28;20045;-77
2022/04/19 09:55:53;;;;;;;4.05;2.10;;;16.20;75.60;;;;;;4996583;28;20054;-77
2022/04/19 09:58:19;;;;;;;8.35;2.05;;;16.20;79.30;;;;;;4980671;28;20516;-78
2022/04/19 10:00:46;;;;;;;8.60;2.40;;;15.90;76.50;;;;;;4997802;28;20046;-79
2022/04/19 10:08:48;;;;;;;6.03;2.22;;;15.90;77.70;;;;;;4980827;28;20141;-78
2022/04/19 10:11:15;;;;;;;3.60;2.20;;;16.00;78.80;;;;;;4997500;28;20042;-78
2022/04/19 10:13:41;;;;;;;4.93;2.70;;;15.90;79.00;;;;;;4997673;28;20045;-78
2022/04/19 10:16:12;;;;;;;4.18;2.63;;;16.00;79.90;;;;;;4980775;28;20360;-76
2022/04/19 10:18:38;;;;;;;5.63;2.80;;;16.20;81.20;;;;;;4997344;28;20109;-78
2022/04/19 10:21:08;;;;;;;5.53;2.38;;;16.40;80.30;;;;;;4997557;28;20041;-78
2022/04/19 10:23:35;;;;;;;4.40;2.58;;;16.40;81.20;;;;;;4988148;28;20399;-78
2022/04/19 10:26:13;;;;;;;5.05;2.90;;;16.50;80.10;;;;;;4961553;28;20047;-77
2022/04/19 10:28:39;;;;;;;4.57;2.45;;;16.50;78.20;;;;;;4977674;28;20062;-78
2022/04/19 10:31:05;;;;;;;3.67;1.95;;;16.50;78.20;;;;;;4944681;28;20053;-77
2022/04/19 10:33:47;;;;;;;6.80;2.67;;;16.30;77.70;;;;;;4952384;28;20096;-79
2022/04/19 10:36:38;;;;;;;7.15;2.88;;;16.40;80.60;;;;;;4997399;28;20049;-78
2022/04/19 10:39:13;;;;;;;7.03;2.70;;;16.40;79.40;;;;;;4996841;28;20073;-79
2022/04/19 10:41:59;;;;;;;9.05;2.58;;;16.40;79.20;;;;;;4996956;28;20121;-77
2022/04/19 10:44:30;;;;;;;8.65;2.92;;;16.60;80.10;;;;;;4964174;28;20122;-77
2022/04/19 10:47:17;;;;;;;5.32;2.90;;;16.90;82.00;;;;;;4977841;28;20053;-78
2022/04/19 10:49:49;;;;;;;4.53;2.90;;;16.70;77.00;;;;;;4977582;28;20138;-77
2022/04/19 10:52:38;;;;;;;6.87;2.70;;;16.70;78.50;;;;;;4977403;28;20383;-77
2022/04/19 10:55:11;;;;;;;3.78;2.28;;;16.60;77.90;;;;;;4959634;28;20408;-77
2022/04/19 11:00:27;;;;;;;6.78;2.58;;;17.00;79.60;;;;;;4996912;28;20086;-76
2022/04/19 11:03:00;;;;;;;6.70;2.90;;;17.10;79.10;;;;;;4978814;28;20046;-77
2022/04/19 11:05:46;;;;;;;4.53;2.72;;;17.20;79.30;;;;;;4979309;28;20061;-78
2022/04/19 11:08:21;;;;;;;4.55;3.05;;;17.20;78.50;;;;;;4996910;28;20058;-77
2022/04/19 11:10:49;;;;;;;4.63;2.80;;;17.20;78.80;;;;;;4979251;28;20054;-78
2022/04/19 11:13:14;;;;;;;7.28;2.75;;;17.20;78.80;;;;;;4978498;28;20408;-77
2022/04/19 11:15:42;;;;;;;4.30;2.65;;;17.50;82.50;;;;;;4996589;28;20046;-77
2022/04/19 11:18:24;;;;;;;8.75;2.92;;;17.60;79.50;;;;;;4978918;28;20035;-78
2022/04/19 11:20:56;;;;;;;4.00;2.50;;;17.70;78.80;;;;;;4996544;28;20367;-77
2022/04/19 11:23:24;;;;;;;4.80;2.85;;;17.90;78.70;;;;;;4996105;28;20161;-77
2022/04/19 11:25:51;;;;;;;4.43;2.88;;;17.60;76.50;;;;;;4978917;28;20046;-77
2022/04/19 11:28:22;;;;;;;4.68;2.75;;;17.20;75.40;;;;;;4979010;28;20152;-76
2022/04/19 11:30:57;;;;;;;5.47;2.75;;;17.10;75.80;;;;;;4996063;28;20058;-78
2022/04/19 11:33:25;;;;;;;4.78;2.63;;;17.10;76.20;;;;;;4995841;28;20451;-77
2022/04/19 11:36:02;;;;;;;6.45;3.50;;;17.20;77.40;;;;;;4995145;28;20415;-78
2022/04/19 11:38:28;;;;;;;4.10;2.40;;;17.20;76.40;;;;;;4978941;28;20413;-78
2022/04/19 11:49:09;;;;;;;11.18;3.30;;;17.50;76.60;;;;;;4958890;28;20047;-76
2022/04/19 11:51:36;;;;;;;4.30;2.33;;;17.60;77.40;;;;;;4958716;28;20046;-77
2022/04/19 11:54:03;;;;;;;4.47;2.70;;;17.60;76.20;;;;;;4969480;28;20132;-78
2022/04/19 11:56:30;;;;;;;6.25;2.55;;;17.70;75.40;;;;;;4978373;28;20088;-77
2022/04/19 11:58:59;;;;;;;6.35;2.72;;;17.80;76.00;;;;;;4995917;28;20046;-78
2022/04/19 12:01:24;;;;;;;4.93;2.50;;;17.80;75.70;;;;;;4995618;28;20060;-78
2022/04/19 12:03:50;;;;;;;4.63;2.72;;;17.80;77.10;;;;;;4978373;28;20058;-77
2022/04/19 12:06:18;;;;;;;5.38;2.60;;;17.90;76.10;;;;;;4978666;28;20046;-78
2022/04/19 12:08:46;;;;;;;6.18;2.25;;;18.00;77.20;;;;;;4978921;28;20141;-78
2022/04/19 12:11:16;;;;;;;8.32;2.53;;;18.20;76.00;;;;;;4995544;28;20057;-77
2022/04/19 12:13:43;;;;;;;3.85;1.80;;;18.20;75.50;;;;;;4978058;28;20061;-76
2022/04/19 12:16:33;;;;;;;2.83;1.73;;;18.10;70.70;;;;;;4978659;28;20042;-79
2022/04/19 12:19:01;;;;;;;4.03;2.10;;;18.00;72.80;;;;;;4995404;28;20050;-76
2022/04/19 12:21:38;;;;;;;4.78;2.00;;;18.00;73.90;;;;;;4978404;28;20073;-77
2022/04/19 12:24:24;;;;;;;4.50;2.28;;;18.00;72.70;;;;;;4978316;28;20331;-78
2022/04/19 12:27:06;;;;;;;6.45;2.75;;;18.10;73.00;;;;;;4975961;28;20325;-76
2022/04/19 12:29:33;;;;;;;4.53;2.50;;;18.00;74.40;;;;;;4958605;28;20587;-75
2022/04/19 12:32:00;;;;;;;3.17;2.00;;;17.90;72.80;;;;;;4958814;28;20058;-76
2022/04/19 12:34:33;;;;;;;5.13;2.00;;;18.00;74.10;;;;;;4976498;28;20042;-77
2022/04/19 12:37:16;;;;;;;4.95;2.20;;;18.20;74.80;;;;;;4995392;28;20038;-76
2022/04/19 12:40:00;;;;;;;5.00;2.40;;;18.20;73.30;;;;;;4978361;28;20140;-77
2022/04/19 12:42:26;;;;;;;;;;;18.10;74.10;;;;;;4995445;28;20129;-77
2022/04/19 12:45:12;;;;;;;3.58;2.20;;;18.20;73.40;;;;;;4995332;28;19953;-78
2022/04/19 12:47:45;;;;;;;3.65;2.28;;;18.20;73.60;;;;;;4978521;28;20054;-76
2022/04/19 12:50:16;;;;;;;3.70;1.92;;;17.80;72.30;;;;;;4995570;28;20042;-77
2022/04/19 12:52:42;;;;;;;3.85;2.10;;;17.90;73.90;;;;;;4995101;28;20055;-77
2022/04/19 12:55:11;;;;;;;4.05;2.35;;;18.10;74.60;;;;;;4988644;28;20478;-77
2022/04/19 12:57:39;;;;;;;4.35;2.30;;;18.10;75.80;;;;;;4975619;28;20189;-77
2022/04/19 13:00:09;;;;;;;3.78;2.22;;;18.00;74.30;;;;;;4958742;28;20054;-77
2022/04/19 13:02:40;;;;;;;3.50;2.25;;;18.10;74.30;;;;;;4975169;28;20046;-77
2022/04/19 13:05:05;;;;;;;7.35;2.70;;;18.20;75.50;;;;;;4984296;28;20054;-78
2022/04/19 13:13:05;;;;;;;3.75;2.13;;;18.10;72.90;;;;;;4998926;28;20363;-76
2022/04/19 13:15:35;;;;;;;6.55;2.47;;;17.90;74.40;;;;;;4989738;28;20039;-77
2022/04/19 13:18:01;;;;;;;4.95;2.33;;;17.90;73.70;;;;;;4961768;28;20130;-77
2022/04/19 13:20:28;;;;;;;5.70;2.28;;;17.90;74.00;;;;;;4962079;28;20046;-76
2022/04/19 13:22:54;;;;;;;4.30;2.40;;;18.00;74.40;;;;;;4961908;28;20118;-77
2022/04/19 13:25:20;;;;;;;4.40;2.45;;;18.00;74.60;;;;;;4985543;28;20526;-76
2022/04/19 13:27:47;;;;;;;4.75;2.53;;;18.20;75.70;;;;;;4981444;28;20068;-78
2022/04/19 13:30:19;;;;;;;4.75;3.00;;;18.30;74.80;;;;;;4980857;28;20109;-77
2022/04/19 13:32:46;;;;;;;6.72;2.78;;;18.40;74.80;;;;;;4997930;28;20077;-76
2022/04/19 13:35:12;;;;;;;4.47;2.75;;;18.40;75.60;;;;;;4981240;28;20124;-76
2022/04/19 13:40:22;;;;;;;8.45;3.10;;;18.30;74.60;;;;;;4998172;28;20124;-76